sensor_id;sensor_type;location;lat;lon;timestamp;P1;durP1;ratioP1;P2;durP2;ratioP2
77955;SDS011;67152;36.266;32.294;2024-02-21T00:01:57;12.82;;;6.72;;
77955;SDS011;67152;36.266;32.294;2024-02-21T00:04:23;12.23;;;6.43;;
77955;SDS011;67152;36.266;32.294;2024-02-21T00:06:50;13.63;;;6.85;;
77955;SDS011;67152;36.266;32.294;2024-02-21T00:09:16;20.67;;;8.00;;
77955;SDS011;67152;36.266;32.294;2024-02-21T00:11:44;12.02;;;7.00;;
77955;SDS011;67152;36.266;32.294;2024-02-21T00:14:10;13.38;;;6.90;;
77955;SDS011;67152;36.266;32.294;2024-02-21T00:16:36;15.63;;;7.63;;
77955;SDS011;67152;36.266;32.294;2024-02-21T00:19:02;13.82;;;6.18;;
77955;SDS011;67152;36.266;32.294;2024-02-21T00:21:29;11.95;;;7.32;;
77955;SDS011;67152;36.266;32.294;2024-02-21T00:23:55;10.93;;;7.13;;
77955;SDS011;67152;36.266;32.294;2024-02-21T00:26:22;12.50;;;7.03;;
77955;SDS011;67152;36.266;32.294;2024-02-21T00:28:49;8.45;;;6.15;;
77955;SDS011;67152;36.266;32.294;2024-02-21T00:31:15;9.30;;;5.63;;
77955;SDS011;67152;36.266;32.294;2024-02-21T00:33:41;8.38;;;5.00;;
77955;SDS011;67152;36.266;32.294;2024-02-21T00:36:07;8.32;;;5.20;;
77955;SDS011;67152;36.266;32.294;2024-02-21T00:38:34;7.95;;;5.38;;
77955;SDS011;67152;36.266;32.294;2024-02-21T00:41:00;8.27;;;5.13;;
77955;SDS011;67152;36.266;32.294;2024-02-21T00:43:26;10.05;;;5.38;;
77955;SDS011;67152;36.266;32.294;2024-02-21T00:45:52;9.90;;;6.07;;
77955;SDS011;67152;36.266;32.294;2024-02-21T00:48:19;8.98;;;6.20;;
77955;SDS011;67152;36.266;32.294;2024-02-21T00:50:45;10.07;;;6.30;;
77955;SDS011;67152;36.266;32.294;2024-02-21T00:53:11;12.52;;;6.60;;
77955;SDS011;67152;36.266;32.294;2024-02-21T00:55:38;9.75;;;6.53;;
77955;SDS011;67152;36.266;32.294;2024-02-21T00:58:05;9.48;;;5.47;;
77955;SDS011;67152;36.266;32.294;2024-02-21T01:00:32;10.27;;;6.15;;
77955;SDS011;67152;36.266;32.294;2024-02-21T01:02:59;8.23;;;5.65;;
77955;SDS011;67152;36.266;32.294;2024-02-21T01:05:25;13.52;;;6.68;;
77955;SDS011;67152;36.266;32.294;2024-02-21T01:07:53;10.55;;;5.72;;
77955;SDS011;67152;36.266;32.294;2024-02-21T01:10:20;11.15;;;6.10;;
77955;SDS011;67152;36.266;32.294;2024-02-21T01:12:46;8.10;;;5.78;;
77955;SDS011;67152;36.266;32.294;2024-02-21T01:15:13;9.15;;;5.22;;
77955;SDS011;67152;36.266;32.294;2024-02-21T01:17:39;7.75;;;5.57;;
77955;SDS011;67152;36.266;32.294;2024-02-21T01:20:08;9.75;;;6.00;;
77955;SDS011;67152;36.266;32.294;2024-02-21T01:22:35;7.38;;;5.00;;
77955;SDS011;67152;36.266;32.294;2024-02-21T01:25:01;7.47;;;5.13;;
77955;SDS011;67152;36.266;32.294;2024-02-21T01:27:27;6.03;;;4.43;;
77955;SDS011;67152;36.266;32.294;2024-02-21T01:29:54;7.55;;;5.30;;
77955;SDS011;67152;36.266;32.294;2024-02-21T01:32:21;10.48;;;4.75;;
77955;SDS011;67152;36.266;32.294;2024-02-21T01:34:50;6.20;;;4.40;;
77955;SDS011;67152;36.266;32.294;2024-02-21T01:37:17;6.55;;;4.47;;
77955;SDS011;67152;36.266;32.294;2024-02-21T01:39:43;7.45;;;4.05;;
77955;SDS011;67152;36.266;32.294;2024-02-21T01:42:10;5.05;;;3.08;;
77955;SDS011;67152;36.266;32.294;2024-02-21T01:44:36;7.30;;;3.33;;
77955;SDS011;67152;36.266;32.294;2024-02-21T01:47:03;5.75;;;4.13;;
77955;SDS011;67152;36.266;32.294;2024-02-21T01:49:30;6.22;;;4.22;;
77955;SDS011;67152;36.266;32.294;2024-02-21T01:51:57;6.05;;;3.72;;
77955;SDS011;67152;36.266;32.294;2024-02-21T01:54:26;8.60;;;4.75;;
77955;SDS011;67152;36.266;32.294;2024-02-21T01:56:54;8.75;;;4.35;;
77955;SDS011;67152;36.266;32.294;2024-02-21T01:59:21;8.77;;;4.70;;
77955;SDS011;67152;36.266;32.294;2024-02-21T02:01:47;8.33;;;5.13;;
77955;SDS011;67152;36.266;32.294;2024-02-21T02:04:14;5.15;;;3.85;;
77955;SDS011;67152;36.266;32.294;2024-02-21T02:06:40;6.57;;;4.07;;
77955;SDS011;67152;36.266;32.294;2024-02-21T02:09:07;7.65;;;4.28;;
77955;SDS011;67152;36.266;32.294;2024-02-21T02:11:35;7.00;;;3.75;;
77955;SDS011;67152;36.266;32.294;2024-02-21T02:14:01;5.90;;;4.10;;
77955;SDS011;67152;36.266;32.294;2024-02-21T02:16:29;6.38;;;4.55;;
77955;SDS011;67152;36.266;32.294;2024-02-21T02:18:55;5.75;;;4.75;;
77955;SDS011;67152;36.266;32.294;2024-02-21T02:21:23;8.07;;;4.45;;
77955;SDS011;67152;36.266;32.294;2024-02-21T02:23:53;8.10;;;4.43;;
77955;SDS011;67152;36.266;32.294;2024-02-21T02:26:28;11.35;;;5.05;;
77955;SDS011;67152;36.266;32.294;2024-02-21T02:28:55;12.82;;;5.03;;
77955;SDS011;67152;36.266;32.294;2024-02-21T02:31:21;7.25;;;4.78;;
77955;SDS011;67152;36.266;32.294;2024-02-21T02:33:47;7.82;;;4.72;;
77955;SDS011;67152;36.266;32.294;2024-02-21T02:36:14;8.05;;;4.72;;
77955;SDS011;67152;36.266;32.294;2024-02-21T02:38:40;6.55;;;4.82;;
77955;SDS011;67152;36.266;32.294;2024-02-21T02:41:06;7.82;;;5.30;;
77955;SDS011;67152;36.266;32.294;2024-02-21T02:43:33;8.52;;;5.05;;
77955;SDS011;67152;36.266;32.294;2024-02-21T02:45:59;7.75;;;4.10;;
77955;SDS011;67152;36.266;32.294;2024-02-21T02:48:26;9.60;;;4.60;;
77955;SDS011;67152;36.266;32.294;2024-02-21T02:50:52;6.60;;;4.32;;
77955;SDS011;67152;36.266;32.294;2024-02-21T02:53:18;10.75;;;5.07;;
77955;SDS011;67152;36.266;32.294;2024-02-21T02:55:45;9.30;;;4.97;;
77955;SDS011;67152;36.266;32.294;2024-02-21T02:58:11;7.80;;;4.90;;
77955;SDS011;67152;36.266;32.294;2024-02-21T03:00:38;6.43;;;4.10;;
77955;SDS011;67152;36.266;32.294;2024-02-21T03:03:05;5.55;;;3.88;;
77955;SDS011;67152;36.266;32.294;2024-02-21T03:05:31;5.95;;;4.13;;
77955;SDS011;67152;36.266;32.294;2024-02-21T03:07:57;8.07;;;3.58;;
77955;SDS011;67152;36.266;32.294;2024-02-21T03:10:24;6.55;;;4.72;;
77955;SDS011;67152;36.266;32.294;2024-02-21T03:12:51;5.80;;;3.92;;
77955;SDS011;67152;36.266;32.294;2024-02-21T03:15:37;8.40;;;3.40;;
77955;SDS011;67152;36.266;32.294;2024-02-21T03:18:03;7.60;;;3.80;;
77955;SDS011;67152;36.266;32.294;2024-02-21T03:20:30;8.27;;;4.53;;
77955;SDS011;67152;36.266;32.294;2024-02-21T03:22:56;6.45;;;4.32;;
77955;SDS011;67152;36.266;32.294;2024-02-21T03:25:22;5.45;;;3.90;;
77955;SDS011;67152;36.266;32.294;2024-02-21T03:27:49;6.32;;;4.20;;
77955;SDS011;67152;36.266;32.294;2024-02-21T03:30:15;6.95;;;4.00;;
77955;SDS011;67152;36.266;32.294;2024-02-21T03:32:42;5.55;;;4.00;;
77955;SDS011;67152;36.266;32.294;2024-02-21T03:35:08;9.10;;;4.93;;
77955;SDS011;67152;36.266;32.294;2024-02-21T03:37:35;9.13;;;5.30;;
77955;SDS011;67152;36.266;32.294;2024-02-21T03:40:01;5.90;;;3.30;;
77955;SDS011;67152;36.266;32.294;2024-02-21T03:42:27;5.18;;;3.78;;
77955;SDS011;67152;36.266;32.294;2024-02-21T03:44:55;5.80;;;3.22;;
77955;SDS011;67152;36.266;32.294;2024-02-21T03:47:22;7.35;;;3.88;;
77955;SDS011;67152;36.266;32.294;2024-02-21T03:49:49;7.15;;;3.78;;
77955;SDS011;67152;36.266;32.294;2024-02-21T03:52:15;7.05;;;3.63;;
77955;SDS011;67152;36.266;32.294;2024-02-21T03:54:42;6.13;;;3.80;;
77955;SDS011;67152;36.266;32.294;2024-02-21T03:57:09;7.75;;;4.72;;
77955;SDS011;67152;36.266;32.294;2024-02-21T03:59:38;8.25;;;4.88;;
77955;SDS011;67152;36.266;32.294;2024-02-21T04:02:05;6.57;;;4.63;;
77955;SDS011;67152;36.266;32.294;2024-02-21T04:04:35;6.32;;;3.70;;
77955;SDS011;67152;36.266;32.294;2024-02-21T04:07:03;10.27;;;4.35;;
77955;SDS011;67152;36.266;32.294;2024-02-21T04:09:32;6.28;;;4.00;;
77955;SDS011;67152;36.266;32.294;2024-02-21T04:11:59;5.40;;;3.35;;
77955;SDS011;67152;36.266;32.294;2024-02-21T04:14:44;6.35;;;4.18;;
77955;SDS011;67152;36.266;32.294;2024-02-21T04:17:11;11.95;;;5.32;;
77955;SDS011;67152;36.266;32.294;2024-02-21T04:19:37;8.07;;;5.85;;
77955;SDS011;67152;36.266;32.294;2024-02-21T04:22:04;9.93;;;5.95;;
77955;SDS011;67152;36.266;32.294;2024-02-21T04:24:30;11.18;;;7.07;;
77955;SDS011;67152;36.266;32.294;2024-02-21T04:26:59;9.25;;;5.15;;
77955;SDS011;67152;36.266;32.294;2024-02-21T04:29:25;9.40;;;6.18;;
77955;SDS011;67152;36.266;32.294;2024-02-21T04:34:19;9.50;;;5.82;;
77955;SDS011;67152;36.266;32.294;2024-02-21T04:36:46;11.00;;;7.32;;
77955;SDS011;67152;36.266;32.294;2024-02-21T04:39:32;8.82;;;5.88;;
77955;SDS011;67152;36.266;32.294;2024-02-21T04:41:58;12.90;;;8.82;;
77955;SDS011;67152;36.266;32.294;2024-02-21T04:44:24;17.92;;;8.75;;
77955;SDS011;67152;36.266;32.294;2024-02-21T04:46:51;14.80;;;8.38;;
77955;SDS011;67152;36.266;32.294;2024-02-21T04:49:17;13.80;;;7.25;;
77955;SDS011;67152;36.266;32.294;2024-02-21T04:51:44;14.55;;;7.75;;
77955;SDS011;67152;36.266;32.294;2024-02-21T04:54:11;17.13;;;8.05;;
77955;SDS011;67152;36.266;32.294;2024-02-21T04:56:37;9.38;;;6.15;;
77955;SDS011;67152;36.266;32.294;2024-02-21T04:59:03;11.07;;;5.85;;
77955;SDS011;67152;36.266;32.294;2024-02-21T05:01:30;13.05;;;8.13;;
77955;SDS011;67152;36.266;32.294;2024-02-21T05:03:56;11.43;;;7.63;;
77955;SDS011;67152;36.266;32.294;2024-02-21T05:06:23;10.48;;;6.40;;
77955;SDS011;67152;36.266;32.294;2024-02-21T05:08:49;14.15;;;7.93;;
77955;SDS011;67152;36.266;32.294;2024-02-21T05:11:15;11.75;;;7.53;;
77955;SDS011;67152;36.266;32.294;2024-02-21T05:13:42;12.27;;;7.88;;
77955;SDS011;67152;36.266;32.294;2024-02-21T05:16:09;11.30;;;5.85;;
77955;SDS011;67152;36.266;32.294;2024-02-21T05:18:35;9.95;;;5.18;;
77955;SDS011;67152;36.266;32.294;2024-02-21T05:21:02;8.93;;;5.72;;
77955;SDS011;67152;36.266;32.294;2024-02-21T05:23:28;11.77;;;7.25;;
77955;SDS011;67152;36.266;32.294;2024-02-21T05:25:54;12.40;;;8.13;;
77955;SDS011;67152;36.266;32.294;2024-02-21T05:28:21;13.40;;;7.45;;
77955;SDS011;67152;36.266;32.294;2024-02-21T05:30:47;12.73;;;7.10;;
77955;SDS011;67152;36.266;32.294;2024-02-21T05:33:13;14.95;;;6.78;;
77955;SDS011;67152;36.266;32.294;2024-02-21T05:35:47;14.18;;;7.90;;
77955;SDS011;67152;36.266;32.294;2024-02-21T05:38:14;22.05;;;11.13;;
77955;SDS011;67152;36.266;32.294;2024-02-21T05:40:41;22.67;;;10.07;;
77955;SDS011;67152;36.266;32.294;2024-02-21T05:43:08;17.60;;;8.27;;
77955;SDS011;67152;36.266;32.294;2024-02-21T05:45:34;11.80;;;7.70;;
77955;SDS011;67152;36.266;32.294;2024-02-21T05:48:01;12.97;;;6.53;;
77955;SDS011;67152;36.266;32.294;2024-02-21T05:50:28;12.77;;;5.40;;
77955;SDS011;67152;36.266;32.294;2024-02-21T05:52:54;13.68;;;4.72;;
77955;SDS011;67152;36.266;32.294;2024-02-21T05:55:21;10.68;;;3.67;;
77955;SDS011;67152;36.266;32.294;2024-02-21T05:57:48;14.48;;;5.68;;
77955;SDS011;67152;36.266;32.294;2024-02-21T06:00:15;15.32;;;6.20;;
77955;SDS011;67152;36.266;32.294;2024-02-21T06:02:42;11.70;;;7.05;;
77955;SDS011;67152;36.266;32.294;2024-02-21T06:05:08;10.73;;;5.32;;
77955;SDS011;67152;36.266;32.294;2024-02-21T06:07:35;12.52;;;6.85;;
77955;SDS011;67152;36.266;32.294;2024-02-21T06:10:01;11.50;;;5.78;;
77955;SDS011;67152;36.266;32.294;2024-02-21T06:12:28;11.93;;;6.25;;
77955;SDS011;67152;36.266;32.294;2024-02-21T06:14:54;13.40;;;6.57;;
77955;SDS011;67152;36.266;32.294;2024-02-21T06:17:24;10.00;;;5.93;;
77955;SDS011;67152;36.266;32.294;2024-02-21T06:19:50;14.82;;;7.22;;
77955;SDS011;67152;36.266;32.294;2024-02-21T06:22:17;10.63;;;6.30;;
77955;SDS011;67152;36.266;32.294;2024-02-21T06:24:43;13.90;;;6.53;;
77955;SDS011;67152;36.266;32.294;2024-02-21T06:27:10;16.33;;;6.32;;
77955;SDS011;67152;36.266;32.294;2024-02-21T06:29:37;14.67;;;5.37;;
77955;SDS011;67152;36.266;32.294;2024-02-21T06:32:03;11.47;;;5.20;;
77955;SDS011;67152;36.266;32.294;2024-02-21T06:34:31;12.85;;;5.72;;
77955;SDS011;67152;36.266;32.294;2024-02-21T06:36:57;9.65;;;5.18;;
77955;SDS011;67152;36.266;32.294;2024-02-21T06:39:24;18.00;;;10.63;;
77955;SDS011;67152;36.266;32.294;2024-02-21T06:41:51;12.13;;;7.15;;
77955;SDS011;67152;36.266;32.294;2024-02-21T06:44:19;13.23;;;6.43;;
77955;SDS011;67152;36.266;32.294;2024-02-21T06:46:47;14.70;;;7.63;;
77955;SDS011;67152;36.266;32.294;2024-02-21T06:49:13;16.70;;;8.47;;
77955;SDS011;67152;36.266;32.294;2024-02-21T06:51:43;13.23;;;7.35;;
77955;SDS011;67152;36.266;32.294;2024-02-21T06:54:12;12.77;;;6.18;;
77955;SDS011;67152;36.266;32.294;2024-02-21T06:56:41;15.95;;;5.53;;
77955;SDS011;67152;36.266;32.294;2024-02-21T06:59:07;8.00;;;5.00;;
77955;SDS011;67152;36.266;32.294;2024-02-21T07:01:34;10.25;;;5.07;;
77955;SDS011;67152;36.266;32.294;2024-02-21T07:04:00;11.57;;;5.83;;
77955;SDS011;67152;36.266;32.294;2024-02-21T07:06:26;12.43;;;6.18;;
77955;SDS011;67152;36.266;32.294;2024-02-21T07:08:53;13.30;;;6.28;;
77955;SDS011;67152;36.266;32.294;2024-02-21T07:11:19;7.53;;;4.63;;
77955;SDS011;67152;36.266;32.294;2024-02-21T07:13:46;7.40;;;5.20;;
77955;SDS011;67152;36.266;32.294;2024-02-21T07:16:12;12.15;;;5.93;;
77955;SDS011;67152;36.266;32.294;2024-02-21T07:18:40;22.70;;;10.57;;
77955;SDS011;67152;36.266;32.294;2024-02-21T07:21:06;25.33;;;6.03;;
77955;SDS011;67152;36.266;32.294;2024-02-21T07:23:32;13.10;;;5.25;;
77955;SDS011;67152;36.266;32.294;2024-02-21T07:25:59;13.23;;;5.80;;
77955;SDS011;67152;36.266;32.294;2024-02-21T07:28:25;15.40;;;9.23;;
77955;SDS011;67152;36.266;32.294;2024-02-21T07:30:52;12.95;;;6.18;;
77955;SDS011;67152;36.266;32.294;2024-02-21T07:33:18;17.48;;;8.18;;
77955;SDS011;67152;36.266;32.294;2024-02-21T07:35:45;12.38;;;6.57;;
77955;SDS011;67152;36.266;32.294;2024-02-21T07:38:11;9.30;;;5.03;;
77955;SDS011;67152;36.266;32.294;2024-02-21T07:40:38;6.87;;;4.60;;
77955;SDS011;67152;36.266;32.294;2024-02-21T07:43:04;7.82;;;4.78;;
77955;SDS011;67152;36.266;32.294;2024-02-21T07:45:31;12.98;;;5.13;;
77955;SDS011;67152;36.266;32.294;2024-02-21T07:47:57;8.20;;;4.70;;
77955;SDS011;67152;36.266;32.294;2024-02-21T07:50:23;10.68;;;4.82;;
77955;SDS011;67152;36.266;32.294;2024-02-21T07:52:50;12.80;;;5.63;;
77955;SDS011;67152;36.266;32.294;2024-02-21T07:55:16;10.50;;;5.60;;
77955;SDS011;67152;36.266;32.294;2024-02-21T07:57:42;9.80;;;5.90;;
77955;SDS011;67152;36.266;32.294;2024-02-21T08:00:09;14.80;;;4.47;;
77955;SDS011;67152;36.266;32.294;2024-02-21T08:02:40;6.00;;;4.05;;
77955;SDS011;67152;36.266;32.294;2024-02-21T08:05:08;7.93;;;4.88;;
77955;SDS011;67152;36.266;32.294;2024-02-21T08:07:34;10.50;;;3.55;;
77955;SDS011;67152;36.266;32.294;2024-02-21T08:10:01;6.23;;;2.80;;
77955;SDS011;67152;36.266;32.294;2024-02-21T08:12:27;6.37;;;3.30;;
77955;SDS011;67152;36.266;32.294;2024-02-21T08:14:53;4.57;;;2.57;;
77955;SDS011;67152;36.266;32.294;2024-02-21T08:17:20;5.73;;;2.63;;
77955;SDS011;67152;36.266;32.294;2024-02-21T08:19:47;7.95;;;3.50;;
77955;SDS011;67152;36.266;32.294;2024-02-21T08:22:15;9.73;;;5.38;;
77955;SDS011;67152;36.266;32.294;2024-02-21T08:24:42;8.85;;;3.38;;
77955;SDS011;67152;36.266;32.294;2024-02-21T08:27:08;11.83;;;3.33;;
77955;SDS011;67152;36.266;32.294;2024-02-21T08:29:35;6.90;;;3.70;;
77955;SDS011;67152;36.266;32.294;2024-02-21T08:32:01;7.37;;;2.87;;
77955;SDS011;67152;36.266;32.294;2024-02-21T08:34:27;12.63;;;3.60;;
77955;SDS011;67152;36.266;32.294;2024-02-21T08:36:56;8.57;;;3.97;;
77955;SDS011;67152;36.266;32.294;2024-02-21T08:39:22;7.32;;;3.65;;
77955;SDS011;67152;36.266;32.294;2024-02-21T08:41:48;15.63;;;3.75;;
77955;SDS011;67152;36.266;32.294;2024-02-21T08:44:16;7.15;;;3.30;;
77955;SDS011;67152;36.266;32.294;2024-02-21T08:46:43;6.65;;;3.17;;
77955;SDS011;67152;36.266;32.294;2024-02-21T08:49:10;11.93;;;3.80;;
77955;SDS011;67152;36.266;32.294;2024-02-21T08:51:36;6.95;;;3.10;;
77955;SDS011;67152;36.266;32.294;2024-02-21T08:54:03;7.00;;;2.92;;
77955;SDS011;67152;36.266;32.294;2024-02-21T08:56:29;6.20;;;2.55;;
77955;SDS011;67152;36.266;32.294;2024-02-21T08:58:57;6.72;;;2.72;;
77955;SDS011;67152;36.266;32.294;2024-02-21T09:01:23;13.00;;;2.90;;
77955;SDS011;67152;36.266;32.294;2024-02-21T09:03:50;7.93;;;2.67;;
77955;SDS011;67152;36.266;32.294;2024-02-21T09:06:19;8.15;;;2.35;;
77955;SDS011;67152;36.266;32.294;2024-02-21T09:08:46;16.30;;;3.28;;
77955;SDS011;67152;36.266;32.294;2024-02-21T09:11:12;5.40;;;2.50;;
77955;SDS011;67152;36.266;32.294;2024-02-21T09:13:38;7.70;;;3.13;;
77955;SDS011;67152;36.266;32.294;2024-02-21T09:16:05;4.32;;;2.47;;
77955;SDS011;67152;36.266;32.294;2024-02-21T09:18:31;10.07;;;2.90;;
77955;SDS011;67152;36.266;32.294;2024-02-21T09:20:58;5.43;;;2.60;;
77955;SDS011;67152;36.266;32.294;2024-02-21T09:23:24;3.53;;;2.47;;
77955;SDS011;67152;36.266;32.294;2024-02-21T09:25:51;5.03;;;2.45;;
77955;SDS011;67152;36.266;32.294;2024-02-21T09:28:17;9.13;;;3.05;;
77955;SDS011;67152;36.266;32.294;2024-02-21T09:30:43;5.22;;;2.90;;
77955;SDS011;67152;36.266;32.294;2024-02-21T09:33:10;4.70;;;2.80;;
77955;SDS011;67152;36.266;32.294;2024-02-21T09:35:36;5.13;;;2.75;;
77955;SDS011;67152;36.266;32.294;2024-02-21T09:38:02;5.85;;;3.08;;
77955;SDS011;67152;36.266;32.294;2024-02-21T09:40:30;6.60;;;2.67;;
77955;SDS011;67152;36.266;32.294;2024-02-21T09:43:06;5.72;;;2.45;;
77955;SDS011;67152;36.266;32.294;2024-02-21T09:45:33;5.45;;;2.88;;
77955;SDS011;67152;36.266;32.294;2024-02-21T09:50:41;7.00;;;2.28;;
77955;SDS011;67152;36.266;32.294;2024-02-21T09:53:11;3.28;;;2.10;;
77955;SDS011;67152;36.266;32.294;2024-02-21T09:55:39;3.13;;;2.05;;
77955;SDS011;67152;36.266;32.294;2024-02-21T09:58:07;4.25;;;2.00;;
77955;SDS011;67152;36.266;32.294;2024-02-21T10:00:39;3.60;;;1.92;;
77955;SDS011;67152;36.266;32.294;2024-02-21T10:03:06;4.70;;;2.33;;
77955;SDS011;67152;36.266;32.294;2024-02-21T10:05:35;5.47;;;2.25;;
77955;SDS011;67152;36.266;32.294;2024-02-21T10:08:02;3.33;;;1.92;;
77955;SDS011;67152;36.266;32.294;2024-02-21T10:10:30;2.13;;;1.80;;
77955;SDS011;67152;36.266;32.294;2024-02-21T10:15:33;6.63;;;2.40;;
77955;SDS011;67152;36.266;32.294;2024-02-21T10:18:00;6.87;;;2.30;;
77955;SDS011;67152;36.266;32.294;2024-02-21T10:20:29;4.47;;;2.15;;
77955;SDS011;67152;36.266;32.294;2024-02-21T10:23:02;6.38;;;2.17;;
77955;SDS011;67152;36.266;32.294;2024-02-21T10:25:36;3.67;;;2.28;;
77955;SDS011;67152;36.266;32.294;2024-02-21T10:28:15;3.25;;;1.67;;
77955;SDS011;67152;36.266;32.294;2024-02-21T10:30:52;3.88;;;2.30;;
77955;SDS011;67152;36.266;32.294;2024-02-21T10:33:18;4.78;;;2.05;;
77955;SDS011;67152;36.266;32.294;2024-02-21T10:35:46;3.78;;;2.10;;
77955;SDS011;67152;36.266;32.294;2024-02-21T10:38:15;10.80;;;2.65;;
77955;SDS011;67152;36.266;32.294;2024-02-21T10:40:41;2.97;;;2.00;;
77955;SDS011;67152;36.266;32.294;2024-02-21T10:43:10;3.30;;;2.15;;
77955;SDS011;67152;36.266;32.294;2024-02-21T10:45:38;6.22;;;2.40;;
77955;SDS011;67152;36.266;32.294;2024-02-21T10:48:08;11.33;;;2.80;;
77955;SDS011;67152;36.266;32.294;2024-02-21T10:50:49;5.82;;;2.30;;
77955;SDS011;67152;36.266;32.294;2024-02-21T10:53:34;7.93;;;1.80;;
77955;SDS011;67152;36.266;32.294;2024-02-21T10:58:57;3.20;;;1.98;;
77955;SDS011;67152;36.266;32.294;2024-02-21T11:01:24;5.93;;;2.22;;
77955;SDS011;67152;36.266;32.294;2024-02-21T11:03:53;3.28;;;2.05;;
77955;SDS011;67152;36.266;32.294;2024-02-21T11:06:40;2.33;;;1.90;;
77955;SDS011;67152;36.266;32.294;2024-02-21T11:14:05;7.50;;;2.50;;
77955;SDS011;67152;36.266;32.294;2024-02-21T11:16:38;5.32;;;2.05;;
77955;SDS011;67152;36.266;32.294;2024-02-21T11:19:09;19.38;;;2.70;;
77955;SDS011;67152;36.266;32.294;2024-02-21T11:21:48;9.55;;;3.63;;
77955;SDS011;67152;36.266;32.294;2024-02-21T11:24:25;7.47;;;2.93;;
77955;SDS011;67152;36.266;32.294;2024-02-21T11:26:53;3.33;;;2.28;;
77955;SDS011;67152;36.266;32.294;2024-02-21T11:29:24;2.25;;;1.75;;
77955;SDS011;67152;36.266;32.294;2024-02-21T11:31:51;3.58;;;2.20;;
77955;SDS011;67152;36.266;32.294;2024-02-21T11:34:18;4.55;;;2.15;;
77955;SDS011;67152;36.266;32.294;2024-02-21T11:36:49;3.47;;;2.30;;
77955;SDS011;67152;36.266;32.294;2024-02-21T11:39:20;5.85;;;2.28;;
77955;SDS011;67152;36.266;32.294;2024-02-21T11:41:48;5.65;;;2.67;;
77955;SDS011;67152;36.266;32.294;2024-02-21T11:44:36;11.32;;;2.90;;
77955;SDS011;67152;36.266;32.294;2024-02-21T11:47:08;6.03;;;2.10;;
77955;SDS011;67152;36.266;32.294;2024-02-21T11:49:38;6.07;;;2.47;;
77955;SDS011;67152;36.266;32.294;2024-02-21T11:52:08;8.82;;;2.80;;
77955;SDS011;67152;36.266;32.294;2024-02-21T11:54:35;7.70;;;2.70;;
77955;SDS011;67152;36.266;32.294;2024-02-21T11:57:01;6.83;;;2.63;;
77955;SDS011;67152;36.266;32.294;2024-02-21T11:59:30;5.03;;;2.45;;
77955;SDS011;67152;36.266;32.294;2024-02-21T12:01:58;4.10;;;3.08;;
77955;SDS011;67152;36.266;32.294;2024-02-21T12:04:29;3.67;;;2.53;;
77955;SDS011;67152;36.266;32.294;2024-02-21T12:06:59;5.15;;;2.58;;
77955;SDS011;67152;36.266;32.294;2024-02-21T12:09:26;3.85;;;2.60;;
77955;SDS011;67152;36.266;32.294;2024-02-21T12:12:05;8.65;;;2.25;;
77955;SDS011;67152;36.266;32.294;2024-02-21T12:14:32;6.97;;;2.90;;
77955;SDS011;67152;36.266;32.294;2024-02-21T12:16:59;9.75;;;2.50;;
77955;SDS011;67152;36.266;32.294;2024-02-21T12:21:58;3.17;;;2.65;;
77955;SDS011;67152;36.266;32.294;2024-02-21T12:24:25;4.80;;;2.35;;
77955;SDS011;67152;36.266;32.294;2024-02-21T12:26:53;6.18;;;2.97;;
77955;SDS011;67152;36.266;32.294;2024-02-21T12:29:20;5.10;;;2.95;;
77955;SDS011;67152;36.266;32.294;2024-02-21T12:31:47;3.17;;;2.47;;
77955;SDS011;67152;36.266;32.294;2024-02-21T12:34:14;5.22;;;3.00;;
77955;SDS011;67152;36.266;32.294;2024-02-21T12:36:41;7.43;;;3.22;;
77955;SDS011;67152;36.266;32.294;2024-02-21T12:39:09;3.55;;;2.83;;
77955;SDS011;67152;36.266;32.294;2024-02-21T12:41:36;11.80;;;3.65;;
77955;SDS011;67152;36.266;32.294;2024-02-21T12:44:09;16.88;;;4.15;;
77955;SDS011;67152;36.266;32.294;2024-02-21T12:46:39;5.60;;;2.90;;
77955;SDS011;67152;36.266;32.294;2024-02-21T12:49:05;7.25;;;3.17;;
77955;SDS011;67152;36.266;32.294;2024-02-21T12:51:33;9.90;;;3.30;;
77955;SDS011;67152;36.266;32.294;2024-02-21T12:54:01;12.07;;;3.88;;
77955;SDS011;67152;36.266;32.294;2024-02-21T12:56:30;6.07;;;2.92;;
77955;SDS011;67152;36.266;32.294;2024-02-21T12:58:57;7.45;;;3.33;;
77955;SDS011;67152;36.266;32.294;2024-02-21T13:01:23;12.25;;;3.60;;
77955;SDS011;67152;36.266;32.294;2024-02-21T13:03:50;4.93;;;3.33;;
77955;SDS011;67152;36.266;32.294;2024-02-21T13:06:16;5.37;;;2.90;;
77955;SDS011;67152;36.266;32.294;2024-02-21T13:08:44;13.25;;;2.85;;
77955;SDS011;67152;36.266;32.294;2024-02-21T13:11:11;6.93;;;3.03;;
77955;SDS011;67152;36.266;32.294;2024-02-21T13:13:38;5.30;;;2.85;;
77955;SDS011;67152;36.266;32.294;2024-02-21T13:16:04;5.38;;;2.95;;
77955;SDS011;67152;36.266;32.294;2024-02-21T13:18:31;9.65;;;3.45;;
77955;SDS011;67152;36.266;32.294;2024-02-21T13:20:58;5.05;;;2.78;;
77955;SDS011;67152;36.266;32.294;2024-02-21T13:23:24;10.57;;;3.10;;
77955;SDS011;67152;36.266;32.294;2024-02-21T13:25:51;9.35;;;4.03;;
77955;SDS011;67152;36.266;32.294;2024-02-21T13:28:17;12.48;;;3.40;;
77955;SDS011;67152;36.266;32.294;2024-02-21T13:30:44;12.17;;;3.10;;
77955;SDS011;67152;36.266;32.294;2024-02-21T13:33:30;14.57;;;3.60;;
77955;SDS011;67152;36.266;32.294;2024-02-21T13:35:56;4.95;;;3.10;;
77955;SDS011;67152;36.266;32.294;2024-02-21T13:38:23;6.93;;;3.05;;
77955;SDS011;67152;36.266;32.294;2024-02-21T13:40:49;9.85;;;3.17;;
77955;SDS011;67152;36.266;32.294;2024-02-21T13:43:16;6.05;;;2.65;;
77955;SDS011;67152;36.266;32.294;2024-02-21T13:45:45;4.32;;;2.90;;
77955;SDS011;67152;36.266;32.294;2024-02-21T13:48:22;10.13;;;3.30;;
77955;SDS011;67152;36.266;32.294;2024-02-21T13:50:48;12.55;;;3.17;;
77955;SDS011;67152;36.266;32.294;2024-02-21T13:53:14;4.28;;;3.28;;
77955;SDS011;67152;36.266;32.294;2024-02-21T13:55:47;20.77;;;10.85;;
77955;SDS011;67152;36.266;32.294;2024-02-21T13:58:13;16.52;;;4.13;;
77955;SDS011;67152;36.266;32.294;2024-02-21T14:00:40;10.15;;;3.33;;
77955;SDS011;67152;36.266;32.294;2024-02-21T14:03:07;9.57;;;3.78;;
77955;SDS011;67152;36.266;32.294;2024-02-21T14:05:34;15.02;;;3.88;;
77955;SDS011;67152;36.266;32.294;2024-02-21T14:08:00;15.35;;;3.55;;
77955;SDS011;67152;36.266;32.294;2024-02-21T14:10:26;15.65;;;3.53;;
77955;SDS011;67152;36.266;32.294;2024-02-21T14:12:54;9.35;;;3.25;;
77955;SDS011;67152;36.266;32.294;2024-02-21T14:15:20;8.43;;;3.35;;
77955;SDS011;67152;36.266;32.294;2024-02-21T14:22:44;10.98;;;3.80;;
77955;SDS011;67152;36.266;32.294;2024-02-21T14:25:10;9.65;;;3.53;;
77955;SDS011;67152;36.266;32.294;2024-02-21T14:27:38;4.05;;;3.20;;
77955;SDS011;67152;36.266;32.294;2024-02-21T14:30:04;5.60;;;3.20;;
77955;SDS011;67152;36.266;32.294;2024-02-21T14:34:58;9.57;;;3.73;;
77955;SDS011;67152;36.266;32.294;2024-02-21T14:37:24;9.57;;;3.92;;
77955;SDS011;67152;36.266;32.294;2024-02-21T14:39:51;6.38;;;3.08;;
77955;SDS011;67152;36.266;32.294;2024-02-21T14:42:17;4.95;;;3.22;;
77955;SDS011;67152;36.266;32.294;2024-02-21T14:44:47;14.88;;;4.40;;
77955;SDS011;67152;36.266;32.294;2024-02-21T14:47:13;10.43;;;4.32;;
77955;SDS011;67152;36.266;32.294;2024-02-21T14:49:40;6.72;;;4.45;;
77955;SDS011;67152;36.266;32.294;2024-02-21T14:52:26;9.10;;;4.05;;
77955;SDS011;67152;36.266;32.294;2024-02-21T14:54:55;13.05;;;4.82;;
77955;SDS011;67152;36.266;32.294;2024-02-21T14:57:21;13.27;;;4.70;;